sensor_id;sensor_type;location;lat;lon;timestamp;pressure;altitude;pressure_sealevel;temperature;humidity
63395;BME280;49531;-34.520;150.798;2023-05-16T00:00:24;101031.25;;;20.16;55.13
63395;BME280;49531;-34.520;150.798;2023-05-16T00:03:03;101039.53;;;20.26;55.04
63395;BME280;49531;-34.520;150.798;2023-05-16T00:05:30;101053.28;;;20.41;54.96
63395;BME280;49531;-34.520;150.798;2023-05-16T00:07:57;101024.81;;;20.22;54.95
63395;BME280;49531;-34.520;150.798;2023-05-16T00:10:27;101073.00;;;20.53;54.84
63395;BME280;49531;-34.520;150.798;2023-05-16T00:12:57;101067.63;;;20.58;54.56
63395;BME280;49531;-34.520;150.798;2023-05-16T00:15:27;101071.50;;;20.62;54.59
63395;BME280;49531;-34.520;150.798;2023-05-16T00:17:56;101075.91;;;20.69;54.61
63395;BME280;49531;-34.520;150.798;2023-05-16T00:20:25;101085.19;;;20.73;54.61
63395;BME280;49531;-34.520;150.798;2023-05-16T00:22:53;101069.72;;;20.73;54.37
63395;BME280;49531;-34.520;150.798;2023-05-16T00:25:21;101065.13;;;20.74;54.55
63395;BME280;49531;-34.520;150.798;2023-05-16T00:27:49;101066.53;;;20.81;54.29
63395;BME280;49531;-34.520;150.798;2023-05-16T00:30:16;101071.53;;;20.89;54.21
63395;BME280;49531;-34.520;150.798;2023-05-16T00:32:43;101066.41;;;20.93;54.14
63395;BME280;49531;-34.520;150.798;2023-05-16T00:35:10;101061.03;;;20.98;53.64
63395;BME280;49531;-34.520;150.798;2023-05-16T00:37:37;101052.06;;;20.97;53.70
63395;BME280;49531;-34.520;150.798;2023-05-16T00:40:05;101058.13;;;21.05;53.48
63395;BME280;49531;-34.520;150.798;2023-05-16T00:42:33;101055.16;;;21.06;53.75
63395;BME280;49531;-34.520;150.798;2023-05-16T00:45:00;101034.97;;;20.97;53.66
63395;BME280;49531;-34.520;150.798;2023-05-16T00:47:27;101045.69;;;21.09;53.68
63395;BME280;49531;-34.520;150.798;2023-05-16T00:49:55;101052.50;;;21.11;53.64
63395;BME280;49531;-34.520;150.798;2023-05-16T00:52:22;101051.16;;;21.14;53.63
63395;BME280;49531;-34.520;150.798;2023-05-16T00:54:51;101035.72;;;21.19;53.32
63395;BME280;49531;-34.520;150.798;2023-05-16T00:57:18;101027.03;;;21.17;53.44
63395;BME280;49531;-34.520;150.798;2023-05-16T00:59:46;101024.94;;;21.24;53.27
63395;BME280;49531;-34.520;150.798;2023-05-16T01:02:13;101025.50;;;21.26;53.36
63395;BME280;49531;-34.520;150.798;2023-05-16T01:04:42;101018.97;;;21.27;52.77
63395;BME280;49531;-34.520;150.798;2023-05-16T01:07:10;101024.22;;;21.34;52.98
63395;BME280;49531;-34.520;150.798;2023-05-16T01:09:37;101014.47;;;21.38;52.66
63395;BME280;49531;-34.520;150.798;2023-05-16T01:12:23;101012.03;;;21.42;52.48
63395;BME280;49531;-34.520;150.798;2023-05-16T01:15:07;101013.72;;;21.48;52.05
63395;BME280;49531;-34.520;150.798;2023-05-16T01:18:03;101006.66;;;21.47;52.31
63395;BME280;49531;-34.520;150.798;2023-05-16T01:20:43;100993.88;;;21.47;52.40
63395;BME280;49531;-34.520;150.798;2023-05-16T01:26:14;100986.59;;;21.53;52.18
63395;BME280;49531;-34.520;150.798;2023-05-16T01:28:45;100972.16;;;21.47;52.31
63395;BME280;49531;-34.520;150.798;2023-05-16T01:31:13;100958.28;;;21.49;51.90
63395;BME280;49531;-34.520;150.798;2023-05-16T01:33:41;100971.41;;;21.57;51.72
63395;BME280;49531;-34.520;150.798;2023-05-16T01:36:24;100967.06;;;21.61;51.82
63395;BME280;49531;-34.520;150.798;2023-05-16T01:39:02;100957.25;;;21.55;51.96
63395;BME280;49531;-34.520;150.798;2023-05-16T01:41:52;100958.63;;;21.57;51.78
63395;BME280;49531;-34.520;150.798;2023-05-16T01:44:35;100955.91;;;21.62;51.61
63395;BME280;49531;-34.520;150.798;2023-05-16T01:47:13;100950.22;;;21.64;51.54
63395;BME280;49531;-34.520;150.798;2023-05-16T01:49:56;100939.91;;;21.66;51.57
63395;BME280;49531;-34.520;150.798;2023-05-16T01:52:39;100932.06;;;21.70;51.56
63395;BME280;49531;-34.520;150.798;2023-05-16T01:55:14;100932.31;;;21.68;51.65
63395;BME280;49531;-34.520;150.798;2023-05-16T01:57:42;100910.56;;;21.68;51.25
63395;BME280;49531;-34.520;150.798;2023-05-16T02:00:10;100912.72;;;21.66;51.27
63395;BME280;49531;-34.520;150.798;2023-05-16T02:02:38;100918.19;;;21.71;51.15
63395;BME280;49531;-34.520;150.798;2023-05-16T02:05:05;100913.88;;;21.75;50.80
63395;BME280;49531;-34.520;150.798;2023-05-16T02:07:33;100898.91;;;21.73;50.94
63395;BME280;49531;-34.520;150.798;2023-05-16T02:10:00;100897.28;;;21.77;50.73
63395;BME280;49531;-34.520;150.798;2023-05-16T02:12:27;100892.94;;;21.76;50.46
63395;BME280;49531;-34.520;150.798;2023-05-16T02:14:54;100895.38;;;21.77;50.43
63395;BME280;49531;-34.520;150.798;2023-05-16T02:17:24;100894.88;;;21.80;50.12
63395;BME280;49531;-34.520;150.798;2023-05-16T02:19:52;100889.69;;;21.79;49.94
63395;BME280;49531;-34.520;150.798;2023-05-16T02:22:19;100886.16;;;21.78;49.89
63395;BME280;49531;-34.520;150.798;2023-05-16T02:24:46;100869.25;;;21.71;49.84
63395;BME280;49531;-34.520;150.798;2023-05-16T02:27:13;100871.75;;;21.78;49.33
63395;BME280;49531;-34.520;150.798;2023-05-16T02:29:40;100850.75;;;21.68;49.65
63395;BME280;49531;-34.520;150.798;2023-05-16T02:32:07;100862.78;;;21.82;49.14
63395;BME280;49531;-34.520;150.798;2023-05-16T02:34:34;100845.28;;;21.63;48.96
63395;BME280;49531;-34.520;150.798;2023-05-16T02:37:02;100861.94;;;21.77;48.87
63395;BME280;49531;-34.520;150.798;2023-05-16T02:39:29;100857.31;;;21.72;48.50
63395;BME280;49531;-34.520;150.798;2023-05-16T02:41:57;100865.22;;;21.79;48.79
63395;BME280;49531;-34.520;150.798;2023-05-16T02:44:25;100850.50;;;21.70;48.09
63395;BME280;49531;-34.520;150.798;2023-05-16T02:46:52;100858.41;;;21.76;48.54
63395;BME280;49531;-34.520;150.798;2023-05-16T02:49:19;100854.88;;;21.76;48.58
63395;BME280;49531;-34.520;150.798;2023-05-16T02:51:46;100859.19;;;21.72;48.61
63395;BME280;49531;-34.520;150.798;2023-05-16T02:54:13;100852.13;;;21.71;48.47
63395;BME280;49531;-34.520;150.798;2023-05-16T02:56:41;100841.78;;;21.68;48.30
63395;BME280;49531;-34.520;150.798;2023-05-16T02:59:09;100837.72;;;21.70;48.21
63395;BME280;49531;-34.520;150.798;2023-05-16T03:01:37;100845.06;;;21.75;47.67
63395;BME280;49531;-34.520;150.798;2023-05-16T03:04:04;100831.16;;;21.61;48.11
63395;BME280;49531;-34.520;150.798;2023-05-16T03:06:31;100836.06;;;21.64;48.03
63395;BME280;49531;-34.520;150.798;2023-05-16T03:08:58;100830.94;;;21.73;47.94
63395;BME280;49531;-34.520;150.798;2023-05-16T03:11:25;100824.63;;;21.62;47.68
63395;BME280;49531;-34.520;150.798;2023-05-16T03:13:54;100820.84;;;21.58;47.81
63395;BME280;49531;-34.520;150.798;2023-05-16T03:16:21;100838.78;;;21.69;47.55
63395;BME280;49531;-34.520;150.798;2023-05-16T03:18:48;100834.72;;;21.67;47.85
63395;BME280;49531;-34.520;150.798;2023-05-16T03:21:16;100827.94;;;21.69;47.68
63395;BME280;49531;-34.520;150.798;2023-05-16T03:23:43;100811.56;;;21.54;48.09
63395;BME280;49531;-34.520;150.798;2023-05-16T03:26:10;100807.50;;;21.56;47.92
63395;BME280;49531;-34.520;150.798;2023-05-16T03:28:37;100826.28;;;21.58;48.04
63395;BME280;49531;-34.520;150.798;2023-05-16T03:31:04;100803.16;;;21.55;47.65
63395;BME280;49531;-34.520;150.798;2023-05-16T03:33:31;100826.81;;;21.65;47.83
63395;BME280;49531;-34.520;150.798;2023-05-16T03:35:58;100822.47;;;21.64;47.76
63395;BME280;49531;-34.520;150.798;2023-05-16T03:38:26;100818.09;;;21.63;47.28
63395;BME280;49531;-34.520;150.798;2023-05-16T03:40:53;100807.75;;;21.50;47.97
63395;BME280;49531;-34.520;150.798;2023-05-16T03:43:20;100823.56;;;21.68;47.65
63395;BME280;49531;-34.520;150.798;2023-05-16T03:45:47;100821.66;;;21.63;47.15
63395;BME280;49531;-34.520;150.798;2023-05-16T03:48:14;100821.66;;;21.63;47.28
63395;BME280;49531;-34.520;150.798;2023-05-16T03:50:41;100811.03;;;21.62;47.32
63395;BME280;49531;-34.520;150.798;2023-05-16T03:53:09;100816.47;;;21.62;47.40
63395;BME280;49531;-34.520;150.798;2023-05-16T03:55:37;100808.31;;;21.62;46.92
63395;BME280;49531;-34.520;150.798;2023-05-16T03:58:05;100808.31;;;21.62;46.90
63395;BME280;49531;-34.520;150.798;2023-05-16T04:00:32;100823.53;;;21.63;47.19
63395;BME280;49531;-34.520;150.798;2023-05-16T04:03:01;100811.03;;;21.62;47.21
63395;BME280;49531;-34.520;150.798;2023-05-16T04:05:29;100817.28;;;21.62;46.36
63395;BME280;49531;-34.520;150.798;2023-05-16T04:07:56;100809.66;;;21.59;46.85
63395;BME280;49531;-34.520;150.798;2023-05-16T04:10:23;100814.56;;;21.57;46.86
63395;BME280;49531;-34.520;150.798;2023-05-16T04:12:51;100810.47;;;21.60;46.92
63395;BME280;49531;-34.520;150.798;2023-05-16T04:15:18;100807.50;;;21.56;47.06
63395;BME280;49531;-34.520;150.798;2023-05-16T04:17:45;100817.81;;;21.59;46.38
63395;BME280;49531;-34.520;150.798;2023-05-16T04:20:12;100813.19;;;21.60;46.22
63395;BME280;49531;-34.520;150.798;2023-05-16T04:22:40;100819.47;;;21.60;46.05
63395;BME280;49531;-34.520;150.798;2023-05-16T04:25:08;100819.75;;;21.59;45.65
63395;BME280;49531;-34.520;150.798;2023-05-16T04:27:36;100808.88;;;21.59;45.82
63395;BME280;49531;-34.520;150.798;2023-05-16T04:30:04;100815.41;;;21.58;45.92
63395;BME280;49531;-34.520;150.798;2023-05-16T04:32:31;100827.34;;;21.62;45.99
63395;BME280;49531;-34.520;150.798;2023-05-16T04:35:00;100805.88;;;21.55;45.68
63395;BME280;49531;-34.520;150.798;2023-05-16T04:37:27;100806.16;;;21.59;45.75
63395;BME280;49531;-34.520;150.798;2023-05-16T04:39:54;100810.50;;;21.55;45.78
63395;BME280;49531;-34.520;150.798;2023-05-16T04:42:22;100822.19;;;21.55;45.73
63395;BME280;49531;-34.520;150.798;2023-05-16T04:44:49;100821.09;;;21.56;45.73
63395;BME280;49531;-34.520;150.798;2023-05-16T04:47:16;100832.22;;;21.55;45.89
63395;BME280;49531;-34.520;150.798;2023-05-16T04:49:43;100828.69;;;21.54;45.84
63395;BME280;49531;-34.520;150.798;2023-05-16T04:52:10;100834.69;;;21.56;45.98
63395;BME280;49531;-34.520;150.798;2023-05-16T04:54:38;100836.59;;;21.56;45.96
63395;BME280;49531;-34.520;150.798;2023-05-16T04:57:05;100842.00;;;21.51;45.96
63395;BME280;49531;-34.520;150.798;2023-05-16T04:59:33;100838.19;;;21.52;46.03
63395;BME280;49531;-34.520;150.798;2023-05-16T05:02:00;100836.03;;;21.54;45.89
63395;BME280;49531;-34.520;150.798;2023-05-16T05:04:27;100840.91;;;21.52;46.08
63395;BME280;49531;-34.520;150.798;2023-05-16T05:06:54;100833.84;;;21.51;46.18
63395;BME280;49531;-34.520;150.798;2023-05-16T05:09:21;100841.47;;;21.54;46.27
63395;BME280;49531;-34.520;150.798;2023-05-16T05:11:49;100844.72;;;21.51;46.29
63395;BME280;49531;-34.520;150.798;2023-05-16T05:14:16;100842.28;;;21.54;46.10
63395;BME280;49531;-34.520;150.798;2023-05-16T05:16:43;100851.00;;;21.56;45.88
63395;BME280;49531;-34.520;150.798;2023-05-16T05:19:10;100846.38;;;21.57;45.89
63395;BME280;49531;-34.520;150.798;2023-05-16T05:21:37;100846.63;;;21.55;46.26
63395;BME280;49531;-34.520;150.798;2023-05-16T05:24:05;100853.97;;;21.55;46.37
63395;BME280;49531;-34.520;150.798;2023-05-16T05:26:32;100847.97;;;21.53;46.61
63395;BME280;49531;-34.520;150.798;2023-05-16T05:29:00;100838.19;;;21.52;46.61
63395;BME280;49531;-34.520;150.798;2023-05-16T05:31:27;100835.44;;;21.47;46.76
63395;BME280;49531;-34.520;150.798;2023-05-16T05:33:54;100845.78;;;21.50;46.90
63395;BME280;49531;-34.520;150.798;2023-05-16T05:36:22;100842.00;;;21.51;46.92
63395;BME280;49531;-34.520;150.798;2023-05-16T05:38:49;100843.06;;;21.50;46.58
63395;BME280;49531;-34.520;150.798;2023-05-16T05:41:16;100837.09;;;21.48;45.72
63395;BME280;49531;-34.520;150.798;2023-05-16T05:43:43;100826.75;;;21.45;42.97
63395;BME280;49531;-34.520;150.798;2023-05-16T05:46:10;100838.19;;;21.52;42.37
63395;BME280;49531;-34.520;150.798;2023-05-16T05:48:37;100836.28;;;21.52;40.38
63395;BME280;49531;-34.520;150.798;2023-05-16T05:51:04;100832.22;;;21.55;41.06
63395;BME280;49531;-34.520;150.798;2023-05-16T05:53:32;100840.06;;;21.46;40.92
63395;BME280;49531;-34.520;150.798;2023-05-16T05:55:59;100855.56;;;21.46;40.12
63395;BME280;49531;-34.520;150.798;2023-05-16T05:58:26;100863.22;;;21.54;40.19
63395;BME280;49531;-34.520;150.798;2023-05-16T06:00:54;100862.88;;;21.45;40.82
63395;BME280;49531;-34.520;150.798;2023-05-16T06:03:21;100866.13;;;21.42;40.45
63395;BME280;49531;-34.520;150.798;2023-05-16T06:05:48;100872.34;;;21.38;40.14
63395;BME280;49531;-34.520;150.798;2023-05-16T06:08:15;100859.88;;;21.42;40.55
63395;BME280;49531;-34.520;150.798;2023-05-16T06:10:43;100876.13;;;21.37;40.44
63395;BME280;49531;-34.520;150.798;2023-05-16T06:13:10;100872.06;;;21.34;40.08
63395;BME280;49531;-34.520;150.798;2023-05-16T06:15:37;100867.91;;;21.26;40.40
63395;BME280;49531;-34.520;150.798;2023-05-16T06:18:04;100867.88;;;21.21;40.25
63395;BME280;49531;-34.520;150.798;2023-05-16T06:20:31;100879.91;;;21.30;39.75
63395;BME280;49531;-34.520;150.798;2023-05-16T06:22:58;100885.84;;;21.27;39.83
63395;BME280;49531;-34.520;150.798;2023-05-16T06:25:26;100886.91;;;21.21;39.79
63395;BME280;49531;-34.520;150.798;2023-05-16T06:27:53;100880.88;;;21.14;40.06
63395;BME280;49531;-34.520;150.798;2023-05-16T06:30:20;100892.84;;;21.18;39.92
63395;BME280;49531;-34.520;150.798;2023-05-16T06:32:47;100891.72;;;21.14;40.05
63395;BME280;49531;-34.520;150.798;2023-05-16T06:35:14;100894.91;;;21.06;40.56
63395;BME280;49531;-34.520;150.798;2023-05-16T06:37:41;100890.25;;;21.02;40.75
63395;BME280;49531;-34.520;150.798;2023-05-16T06:40:09;100905.19;;;20.99;40.78
63395;BME280;49531;-34.520;150.798;2023-05-16T06:42:36;100902.88;;;20.86;41.12
63395;BME280;49531;-34.520;150.798;2023-05-16T06:45:04;100911.34;;;20.89;41.84
63395;BME280;49531;-34.520;150.798;2023-05-16T06:47:31;100915.53;;;21.02;42.01
63395;BME280;49531;-34.520;150.798;2023-05-16T06:49:58;100923.16;;;21.05;42.37
63395;BME280;49531;-34.520;150.798;2023-05-16T06:52:26;100902.75;;;21.03;42.37
63395;BME280;49531;-34.520;150.798;2023-05-16T06:54:53;100921.56;;;21.09;42.80
63395;BME280;49531;-34.520;150.798;2023-05-16T06:57:20;100926.19;;;21.09;43.19
63395;BME280;49531;-34.520;150.798;2023-05-16T06:59:47;100923.97;;;21.06;43.63
63395;BME280;49531;-34.520;150.798;2023-05-16T07:02:15;100919.31;;;21.01;44.01
63395;BME280;49531;-34.520;150.798;2023-05-16T07:04:42;100924.75;;;21.01;44.28
63395;BME280;49531;-34.520;150.798;2023-05-16T07:07:09;100926.66;;;21.01;44.53
63395;BME280;49531;-34.520;150.798;2023-05-16T07:09:36;100931.50;;;20.98;45.01
63395;BME280;49531;-34.520;150.798;2023-05-16T07:12:04;100909.91;;;20.82;45.13
63395;BME280;49531;-34.520;150.798;2023-05-16T07:14:31;100929.00;;;20.92;45.39
63395;BME280;49531;-34.520;150.798;2023-05-16T07:16:58;100933.88;;;20.90;45.07
63395;BME280;49531;-34.520;150.798;2023-05-16T07:19:26;100933.31;;;20.88;45.39
63395;BME280;49531;-34.520;150.798;2023-05-16T07:21:53;100943.03;;;20.84;45.32
63395;BME280;49531;-34.520;150.798;2023-05-16T07:24:20;100941.16;;;20.84;45.78
63395;BME280;49531;-34.520;150.798;2023-05-16T07:26:48;100938.69;;;20.83;43.98
63395;BME280;49531;-34.520;150.798;2023-05-16T07:29:15;100949.91;;;20.91;44.50
63395;BME280;49531;-34.520;150.798;2023-05-16T07:31:42;100929.78;;;20.87;45.61
63395;BME280;49531;-34.520;150.798;2023-05-16T07:34:09;100942.84;;;20.90;45.79
63395;BME280;49531;-34.520;150.798;2023-05-16T07:36:37;100936.84;;;20.88;45.91
63395;BME280;49531;-34.520;150.798;2023-05-16T07:39:04;100960.31;;;21.00;45.96
63395;BME280;49531;-34.520;150.798;2023-05-16T07:41:32;100950.25;;;21.00;45.88
63395;BME280;49531;-34.520;150.798;2023-05-16T07:43:59;100950.53;;;20.98;45.81
63395;BME280;49531;-34.520;150.798;2023-05-16T07:46:26;100954.63;;;21.01;45.77
63395;BME280;49531;-34.520;150.798;2023-05-16T07:48:53;100954.94;;;21.05;45.79
63395;BME280;49531;-34.520;150.798;2023-05-16T07:51:20;100955.19;;;21.03;45.77
63395;BME280;49531;-34.520;150.798;2023-05-16T07:53:50;100927.88;;;20.88;45.79
63395;BME280;49531;-34.520;150.798;2023-05-16T07:56:17;100970.75;;;21.13;45.85
63395;BME280;49531;-34.520;150.798;2023-05-16T07:58:45;100959.03;;;21.07;45.76
63395;BME280;49531;-34.520;150.798;2023-05-16T08:01:14;100961.47;;;21.09;45.69
63395;BME280;49531;-34.520;150.798;2023-05-16T08:03:42;100969.88;;;21.07;45.83
63395;BME280;49531;-34.520;150.798;2023-05-16T08:08:36;100985.72;;;21.15;45.78
63395;BME280;49531;-34.520;150.798;2023-05-16T08:11:03;100997.41;;;21.16;45.63
63395;BME280;49531;-34.520;150.798;2023-05-16T08:13:30;100988.44;;;21.15;45.59
63395;BME280;49531;-34.520;150.798;2023-05-16T08:15:58;100994.63;;;21.11;45.79
63395;BME280;49531;-34.520;150.798;2023-05-16T08:18:25;101005.00;;;21.14;45.88
63395;BME280;49531;-34.520;150.798;2023-05-16T08:20:52;100992.19;;;21.09;45.71
63395;BME280;49531;-34.520;150.798;2023-05-16T08:23:19;101002.53;;;21.12;45.62
63395;BME280;49531;-34.520;150.798;2023-05-16T08:25:46;101004.13;;;21.08;45.86
63395;BME280;49531;-34.520;150.798;2023-05-16T08:28:14;100991.31;;;21.04;45.66
63395;BME280;49531;-34.520;150.798;2023-05-16T08:30:41;101012.31;;;21.13;45.71
63395;BME280;49531;-34.520;150.798;2023-05-16T08:33:09;101011.50;;;21.13;45.70
63395;BME280;49531;-34.520;150.798;2023-05-16T08:35:36;101010.38;;;21.09;45.89
63395;BME280;49531;-34.520;150.798;2023-05-16T08:38:06;101019.66;;;21.13;45.68
63395;BME280;49531;-34.520;150.798;2023-05-16T08:40:33;101020.47;;;21.13;45.69
63395;BME280;49531;-34.520;150.798;2023-05-16T08:43:00;101007.84;;;21.02;45.61
63395;BME280;49531;-34.520;150.798;2023-05-16T08:45:29;101019.53;;;21.03;45.84
63395;BME280;49531;-34.520;150.798;2023-05-16T08:47:57;101024.16;;;21.02;45.84
63395;BME280;49531;-34.520;150.798;2023-05-16T08:50:30;101038.03;;;21.06;45.65
63395;BME280;49531;-34.520;150.798;2023-05-16T08:53:04;101035.84;;;21.03;45.90
63395;BME280;49531;-34.520;150.798;2023-05-16T08:55:33;101037.16;;;21.00;45.69
63395;BME280;49531;-34.520;150.798;2023-05-16T08:58:01;101029.72;;;20.90;45.90
63395;BME280;49531;-34.520;150.798;2023-05-16T09:00:29;101038.25;;;20.99;45.67
63395;BME280;49531;-34.520;150.798;2023-05-16T09:02:57;101049.09;;;20.99;45.81
63395;BME280;49531;-34.520;150.798;2023-05-16T09:05:25;101053.47;;;21.00;45.58
63395;BME280;49531;-34.520;150.798;2023-05-16T09:07:53;101051.00;;;20.98;45.54
63395;BME280;49531;-34.520;150.798;2023-05-16T09:10:20;101055.63;;;20.98;45.38
63395;BME280;49531;-34.520;150.798;2023-05-16T09:12:47;101053.41;;;20.95;45.51
63395;BME280;49531;-34.520;150.798;2023-05-16T09:15:17;101050.63;;;20.90;45.66
63395;BME280;49531;-34.520;150.798;2023-05-16T09:17:45;101062.06;;;20.92;45.55
63395;BME280;49531;-34.520;150.798;2023-05-16T09:20:14;101067.50;;;20.92;45.57
63395;BME280;49531;-34.520;150.798;2023-05-16T09:22:54;101073.16;;;20.90;45.66
63395;BME280;49531;-34.520;150.798;2023-05-16T09:25:24;101067.94;;;20.84;45.74
63395;BME280;49531;-34.520;150.798;2023-05-16T09:27:56;101076.13;;;20.89;45.65
63395;BME280;49531;-34.520;150.798;2023-05-16T09:30:28;101071.53;;;20.89;45.59
63395;BME280;49531;-34.520;150.798;2023-05-16T09:32:55;101066.78;;;20.80;45.61
63395;BME280;49531;-34.520;150.798;2023-05-16T09:35:22;101086.13;;;20.83;45.54
63395;BME280;49531;-34.520;150.798;2023-05-16T09:37:50;101090.22;;;20.86;45.48
63395;BME280;49531;-34.520;150.798;2023-05-16T09:40:21;101091.81;;;20.82;45.59
63395;BME280;49531;-34.520;150.798;2023-05-16T09:43:02;101098.31;;;20.81;45.50
63395;BME280;49531;-34.520;150.798;2023-05-16T09:45:30;101089.09;;;20.82;45.71
63395;BME280;49531;-34.520;150.798;2023-05-16T09:48:06;101095.06;;;20.79;45.70
63395;BME280;49531;-34.520;150.798;2023-05-16T09:50:35;101094.47;;;20.77;45.84
63395;BME280;49531;-34.520;150.798;2023-05-16T09:53:03;101100.47;;;20.79;45.47
63395;BME280;49531;-34.520;150.798;2023-05-16T09:55:31;101100.19;;;20.80;45.59
63395;BME280;49531;-34.520;150.798;2023-05-16T09:57:58;101104.81;;;20.80;45.53
63395;BME280;49531;-34.520;150.798;2023-05-16T10:00:30;101096.56;;;20.70;45.54
63395;BME280;49531;-34.520;150.798;2023-05-16T10:02:59;101098.84;;;20.78;45.40
63395;BME280;49531;-34.520;150.798;2023-05-16T10:05:27;101103.69;;;20.76;45.44
63395;BME280;49531;-34.520;150.798;2023-05-16T10:07:55;101105.03;;;20.73;45.47
63395;BME280;49531;-34.520;150.798;2023-05-16T10:10:23;101097.63;;;20.69;45.40
63395;BME280;49531;-34.520;150.798;2023-05-16T10:12:51;101106.59;;;20.69;45.49
63395;BME280;49531;-34.520;150.798;2023-05-16T10:15:19;101096.50;;;20.64;45.38
63395;BME280;49531;-34.520;150.798;2023-05-16T10:17:50;101101.91;;;20.64;45.69
63395;BME280;49531;-34.520;150.798;2023-05-16T10:20:19;101084.75;;;20.59;45.60
63395;BME280;49531;-34.520;150.798;2023-05-16T10:22:52;101069.16;;;20.49;45.56
63395;BME280;49531;-34.520;150.798;2023-05-16T10:25:27;101091.88;;;20.65;45.56
63395;BME280;49531;-34.520;150.798;2023-05-16T10:27:55;101082.41;;;20.68;45.43
63395;BME280;49531;-34.520;150.798;2023-05-16T10:30:24;101081.28;;;20.63;45.53
63395;BME280;49531;-34.520;150.798;2023-05-16T10:32:52;101098.13;;;20.66;45.52
63395;BME280;49531;-34.520;150.798;2023-05-16T10:35:21;101103.00;;;20.63;45.43
63395;BME280;49531;-34.520;150.798;2023-05-16T10:37:50;101067.38;;;20.38;45.49
63395;BME280;49531;-34.520;150.798;2023-05-16T10:40:19;101102.09;;;20.58;45.54
63395;BME280;49531;-34.520;150.798;2023-05-16T10:42:58;101104.75;;;20.53;45.73
63395;BME280;49531;-34.520;150.798;2023-05-16T10:45:26;101124.06;;;20.56;45.69
63395;BME280;49531;-34.520;150.798;2023-05-16T10:47:56;101124.56;;;20.53;45.32
63395;BME280;49531;-34.520;150.798;2023-05-16T10:50:33;101150.13;;;20.57;45.22
63395;BME280;49531;-34.520;150.798;2023-05-16T10:53:20;101160.41;;;20.55;45.30
63395;BME280;49531;-34.520;150.798;2023-05-16T10:56:06;101158.69;;;20.49;44.96
63395;BME280;49531;-34.520;150.798;2023-05-16T10:58:41;101167.91;;;20.48;45.27
63395;BME280;49531;-34.520;150.798;2023-05-16T11:01:25;101173.41;;;20.53;45.39
63395;BME280;49531;-34.520;150.798;2023-05-16T11:04:01;101165.34;;;20.42;45.46
63395;BME280;49531;-34.520;150.798;2023-05-16T11:06:31;101171.31;;;20.39;45.79
63395;BME280;49531;-34.520;150.798;2023-05-16T11:11:55;101189.69;;;20.37;46.02
63395;BME280;49531;-34.520;150.798;2023-05-16T11:14:35;101191.38;;;20.38;46.28
63395;BME280;49531;-34.520;150.798;2023-05-16T11:17:09;101197.00;;;20.36;47.19
63395;BME280;49531;-34.520;150.798;2023-05-16T11:19:42;101210.91;;;20.40;46.85
63395;BME280;49531;-34.520;150.798;2023-05-16T11:22:25;101227.69;;;20.37;47.28
63395;BME280;49531;-34.520;150.798;2023-05-16T11:25:02;101215.09;;;20.30;47.81
63395;BME280;49531;-34.520;150.798;2023-05-16T11:27:33;101225.22;;;20.35;47.70
63395;BME280;49531;-34.520;150.798;2023-05-16T11:30:16;101234.91;;;20.31;48.41
63395;BME280;49531;-34.520;150.798;2023-05-16T11:32:46;101233.50;;;20.28;48.49
63395;BME280;49531;-34.520;150.798;2023-05-16T11:35:15;101233.34;;;20.35;48.74
63395;BME280;49531;-34.520;150.798;2023-05-16T11:37:44;101238.19;;;20.33;48.82
63395;BME280;49531;-34.520;150.798;2023-05-16T11:40:13;101239.75;;;20.29;49.23
63395;BME280;49531;-34.520;150.798;2023-05-16T11:42:45;101237.53;;;20.26;49.75
63395;BME280;49531;-34.520;150.798;2023-05-16T11:45:16;101233.44;;;20.23;50.10
63395;BME280;49531;-34.520;150.798;2023-05-16T11:47:45;101234.81;;;20.26;50.25
63395;BME280;49531;-34.520;150.798;2023-05-16T11:50:15;101209.06;;;20.12;50.35
63395;BME280;49531;-34.520;150.798;2023-05-16T11:52:44;101234.25;;;20.24;50.46
63395;BME280;49531;-34.520;150.798;2023-05-16T11:55:11;101249.69;;;20.23;50.50
63395;BME280;49531;-34.520;150.798;2023-05-16T11:57:40;101240.97;;;20.21;50.39
63395;BME280;49531;-34.520;150.798;2023-05-16T12:00:14;101205.88;;;19.98;50.22
63395;BME280;49531;-34.520;150.798;2023-05-16T12:02:43;101246.66;;;20.20;50.69
63395;BME280;49531;-34.520;150.798;2023-05-16T12:05:11;101251.25;;;20.19;50.92
63395;BME280;49531;-34.520;150.798;2023-05-16T12:07:38;101255.75;;;20.14;51.35
63395;BME280;49531;-34.520;150.798;2023-05-16T12:10:07;101264.56;;;20.21;50.64
63395;BME280;49531;-34.520;150.798;2023-05-16T12:12:35;101275.44;;;20.21;51.20
63395;BME280;49531;-34.520;150.798;2023-05-16T12:15:04;101269.91;;;20.16;51.38
63395;BME280;49531;-34.520;150.798;2023-05-16T12:17:34;101274.75;;;20.14;52.16
63395;BME280;49531;-34.520;150.798;2023-05-16T12:20:03;101286.19;;;20.16;51.92
63395;BME280;49531;-34.520;150.798;2023-05-16T12:22:32;101280.19;;;20.14;52.68
63395;BME280;49531;-34.520;150.798;2023-05-16T12:25:17;101291.03;;;20.14;52.68
63395;BME280;49531;-34.520;150.798;2023-05-16T12:27:46;101283.38;;;20.11;51.81
63395;BME280;49531;-34.520;150.798;2023-05-16T12:30:16;101290.44;;;20.12;52.46
63395;BME280;49531;-34.520;150.798;2023-05-16T12:32:44;101289.75;;;20.05;52.50
63395;BME280;49531;-34.520;150.798;2023-05-16T12:35:12;101302.34;;;20.11;52.66
63395;BME280;49531;-34.520;150.798;2023-05-16T12:37:41;101295.28;;;20.10;52.38